sensor_id;sensor_type;location;lat;lon;timestamp;pressure;altitude;pressure_sealevel;temperature;humidity
76594;BME280;65482;50.240;14.302;2023-05-07T00:00:08;99836.00;;;10.40;69.95
76594;BME280;65482;50.240;14.302;2023-05-07T00:02:54;99833.97;;;10.52;69.58
76594;BME280;65482;50.240;14.302;2023-05-07T00:05:20;99829.75;;;10.59;69.42
76594;BME280;65482;50.240;14.302;2023-05-07T00:07:46;99826.09;;;10.60;69.08
76594;BME280;65482;50.240;14.302;2023-05-07T00:10:11;99830.41;;;10.61;69.40
76594;BME280;65482;50.240;14.302;2023-05-07T00:12:38;99831.56;;;10.59;69.46
76594;BME280;65482;50.240;14.302;2023-05-07T00:15:04;99838.84;;;10.65;69.15
76594;BME280;65482;50.240;14.302;2023-05-07T00:17:30;99842.53;;;10.54;69.83
76594;BME280;65482;50.240;14.302;2023-05-07T00:19:56;99838.88;;;10.47;70.17
76594;BME280;65482;50.240;14.302;2023-05-07T00:22:21;99839.47;;;10.59;69.93
76594;BME280;65482;50.240;14.302;2023-05-07T00:24:47;99843.00;;;10.67;69.56
76594;BME280;65482;50.240;14.302;2023-05-07T00:27:13;99840.75;;;10.72;69.74
76594;BME280;65482;50.240;14.302;2023-05-07T00:29:38;99845.06;;;10.82;69.39
76594;BME280;65482;50.240;14.302;2023-05-07T00:32:04;99838.59;;;10.76;69.48
76594;BME280;65482;50.240;14.302;2023-05-07T00:34:30;99841.41;;;10.74;69.64
76594;BME280;65482;50.240;14.302;2023-05-07T00:36:55;99839.13;;;10.80;69.35
76594;BME280;65482;50.240;14.302;2023-05-07T00:39:21;99837.53;;;10.87;69.23
76594;BME280;65482;50.240;14.302;2023-05-07T00:41:46;99843.34;;;10.90;69.32
76594;BME280;65482;50.240;14.302;2023-05-07T00:44:15;99841.81;;;11.40;66.71
76594;BME280;65482;50.240;14.302;2023-05-07T00:46:40;99835.16;;;11.02;68.42
76594;BME280;65482;50.240;14.302;2023-05-07T00:49:06;99832.16;;;10.97;68.85
76594;BME280;65482;50.240;14.302;2023-05-07T00:51:32;99833.94;;;10.96;68.67
76594;BME280;65482;50.240;14.302;2023-05-07T00:54:00;99834.47;;;11.00;68.46
76594;BME280;65482;50.240;14.302;2023-05-07T00:56:27;99834.63;;;10.98;68.09
76594;BME280;65482;50.240;14.302;2023-05-07T00:58:53;99831.16;;;10.98;67.30
76594;BME280;65482;50.240;14.302;2023-05-07T01:01:18;99836.44;;;10.98;67.76
76594;BME280;65482;50.240;14.302;2023-05-07T01:03:44;99834.63;;;10.98;67.79
76594;BME280;65482;50.240;14.302;2023-05-07T01:06:10;99831.97;;;10.98;67.84
76594;BME280;65482;50.240;14.302;2023-05-07T01:08:39;99829.34;;;10.98;67.48
76594;BME280;65482;50.240;14.302;2023-05-07T01:11:06;99836.50;;;11.06;67.10
76594;BME280;65482;50.240;14.302;2023-05-07T01:13:33;99834.53;;;11.08;66.92
76594;BME280;65482;50.240;14.302;2023-05-07T01:15:59;99834.06;;;11.12;66.59
76594;BME280;65482;50.240;14.302;2023-05-07T01:18:25;99833.75;;;11.15;66.24
76594;BME280;65482;50.240;14.302;2023-05-07T01:20:52;99828.94;;;11.11;66.01
76594;BME280;65482;50.240;14.302;2023-05-07T01:23:18;99835.25;;;11.18;65.80
76594;BME280;65482;50.240;14.302;2023-05-07T01:25:51;99841.81;;;11.14;65.71
76594;BME280;65482;50.240;14.302;2023-05-07T01:28:16;99843.47;;;11.15;66.15
76594;BME280;65482;50.240;14.302;2023-05-07T01:30:46;99841.88;;;11.22;66.13
76594;BME280;65482;50.240;14.302;2023-05-07T01:33:13;99841.88;;;11.22;66.29
76594;BME280;65482;50.240;14.302;2023-05-07T01:35:43;99843.22;;;11.26;65.87
76594;BME280;65482;50.240;14.302;2023-05-07T01:38:11;99835.47;;;11.25;66.19
76594;BME280;65482;50.240;14.302;2023-05-07T01:40:37;99843.28;;;11.34;66.24
76594;BME280;65482;50.240;14.302;2023-05-07T01:43:03;99848.69;;;11.33;66.12
76594;BME280;65482;50.240;14.302;2023-05-07T01:45:30;99855.94;;;11.31;65.97
76594;BME280;65482;50.240;14.302;2023-05-07T01:47:56;99855.66;;;11.34;66.09
76594;BME280;65482;50.240;14.302;2023-05-07T01:50:23;99853.50;;;11.38;65.88
76594;BME280;65482;50.240;14.302;2023-05-07T01:52:50;99855.16;;;11.39;65.63
76594;BME280;65482;50.240;14.302;2023-05-07T01:55:16;99850.56;;;11.41;65.23
76594;BME280;65482;50.240;14.302;2023-05-07T01:57:41;99856.81;;;11.40;65.82
76594;BME280;65482;50.240;14.302;2023-05-07T02:00:07;99856.13;;;11.38;65.27
76594;BME280;65482;50.240;14.302;2023-05-07T02:02:34;99855.50;;;11.44;65.16
76594;BME280;65482;50.240;14.302;2023-05-07T02:05:00;99852.88;;;11.44;65.26
76594;BME280;65482;50.240;14.302;2023-05-07T02:07:27;99857.19;;;11.45;64.85
76594;BME280;65482;50.240;14.302;2023-05-07T02:09:53;99858.34;;;11.42;64.04
76594;BME280;65482;50.240;14.302;2023-05-07T02:12:19;99849.41;;;11.43;64.26
76594;BME280;65482;50.240;14.302;2023-05-07T02:14:45;99850.22;;;11.44;64.11
76594;BME280;65482;50.240;14.302;2023-05-07T02:17:12;99856.84;;;11.48;64.35
76594;BME280;65482;50.240;14.302;2023-05-07T02:19:37;99854.44;;;11.54;64.20
76594;BME280;65482;50.240;14.302;2023-05-07T02:22:03;99853.41;;;11.55;64.20
76594;BME280;65482;50.240;14.302;2023-05-07T02:24:28;99851.75;;;11.46;64.33
76594;BME280;65482;50.240;14.302;2023-05-07T02:26:54;99849.13;;;11.54;63.89
76594;BME280;65482;50.240;14.302;2023-05-07T02:29:19;99856.41;;;11.52;63.65
76594;BME280;65482;50.240;14.302;2023-05-07T02:31:45;99862.34;;;11.54;64.22
76594;BME280;65482;50.240;14.302;2023-05-07T02:34:10;99854.56;;;11.53;63.87
76594;BME280;65482;50.240;14.302;2023-05-07T02:36:36;99859.56;;;11.56;63.66
76594;BME280;65482;50.240;14.302;2023-05-07T02:39:02;99862.88;;;11.58;63.71
76594;BME280;65482;50.240;14.302;2023-05-07T02:41:28;99858.06;;;11.62;63.89
76594;BME280;65482;50.240;14.302;2023-05-07T02:43:53;99848.00;;;11.65;63.78
76594;BME280;65482;50.240;14.302;2023-05-07T02:46:19;99855.31;;;11.71;63.56
76594;BME280;65482;50.240;14.302;2023-05-07T02:48:45;99859.09;;;11.69;63.49
76594;BME280;65482;50.240;14.302;2023-05-07T02:51:10;99860.59;;;11.71;63.50
76594;BME280;65482;50.240;14.302;2023-05-07T02:53:36;99868.88;;;11.77;63.33
76594;BME280;65482;50.240;14.302;2023-05-07T02:56:02;99865.91;;;11.80;63.51
76594;BME280;65482;50.240;14.302;2023-05-07T02:58:27;99869.41;;;11.80;63.42
76594;BME280;65482;50.240;14.302;2023-05-07T03:00:53;99867.22;;;11.75;63.49
76594;BME280;65482;50.240;14.302;2023-05-07T03:03:20;99865.72;;;11.73;63.42
76594;BME280;65482;50.240;14.302;2023-05-07T03:05:46;99862.78;;;11.76;63.56
76594;BME280;65482;50.240;14.302;2023-05-07T03:08:11;99862.09;;;11.74;63.51
76594;BME280;65482;50.240;14.302;2023-05-07T03:10:37;99870.69;;;11.76;63.64
76594;BME280;65482;50.240;14.302;2023-05-07T03:13:03;99872.50;;;11.75;63.31
76594;BME280;65482;50.240;14.302;2023-05-07T03:15:29;99874.00;;;11.78;63.11
76594;BME280;65482;50.240;14.302;2023-05-07T03:17:55;99876.44;;;11.71;63.23
76594;BME280;65482;50.240;14.302;2023-05-07T03:20:21;99872.50;;;11.75;63.46
76594;BME280;65482;50.240;14.302;2023-05-07T03:22:47;99876.41;;;11.63;63.77
76594;BME280;65482;50.240;14.302;2023-05-07T03:25:13;99870.31;;;11.63;63.54
76594;BME280;65482;50.240;14.302;2023-05-07T03:27:39;99865.66;;;11.57;63.55
76594;BME280;65482;50.240;14.302;2023-05-07T03:30:05;99869.09;;;11.49;63.65
76594;BME280;65482;50.240;14.302;2023-05-07T03:32:32;99874.75;;;11.54;63.64
76594;BME280;65482;50.240;14.302;2023-05-07T03:34:57;99879.03;;;11.55;63.75
76594;BME280;65482;50.240;14.302;2023-05-07T03:37:23;99870.91;;;11.48;63.41
76594;BME280;65482;50.240;14.302;2023-05-07T03:39:48;99877.28;;;11.38;63.20
76594;BME280;65482;50.240;14.302;2023-05-07T03:42:14;99878.78;;;11.40;63.29
76594;BME280;65482;50.240;14.302;2023-05-07T03:44:40;99872.00;;;11.38;63.86
76594;BME280;65482;50.240;14.302;2023-05-07T03:47:05;99861.03;;;11.24;63.75
76594;BME280;65482;50.240;14.302;2023-05-07T03:49:31;99863.50;;;11.26;63.42
76594;BME280;65482;50.240;14.302;2023-05-07T03:51:56;99864.97;;;11.20;63.08
76594;BME280;65482;50.240;14.302;2023-05-07T03:54:22;99876.13;;;11.14;63.51
76594;BME280;65482;50.240;14.302;2023-05-07T03:56:48;99873.56;;;11.22;63.61
76594;BME280;65482;50.240;14.302;2023-05-07T03:59:14;99868.28;;;11.22;63.45
76594;BME280;65482;50.240;14.302;2023-05-07T04:01:40;99875.75;;;11.27;63.15
76594;BME280;65482;50.240;14.302;2023-05-07T04:04:06;99874.91;;;11.26;63.17
76594;BME280;65482;50.240;14.302;2023-05-07T04:06:31;99876.41;;;11.29;63.29
76594;BME280;65482;50.240;14.302;2023-05-07T04:08:57;99880.53;;;11.31;62.90
76594;BME280;65482;50.240;14.302;2023-05-07T04:11:23;99876.41;;;11.29;62.83
76594;BME280;65482;50.240;14.302;2023-05-07T04:13:49;99880.66;;;11.22;63.20
76594;BME280;65482;50.240;14.302;2023-05-07T04:16:14;99877.03;;;11.23;63.26
76594;BME280;65482;50.240;14.302;2023-05-07T04:18:40;99892.31;;;11.11;63.66
76594;BME280;65482;50.240;14.302;2023-05-07T04:21:14;99879.63;;;11.14;63.96
76594;BME280;65482;50.240;14.302;2023-05-07T04:23:39;99875.69;;;11.19;63.62
76594;BME280;65482;50.240;14.302;2023-05-07T04:26:05;99888.56;;;11.22;63.38
76594;BME280;65482;50.240;14.302;2023-05-07T04:28:30;99895.53;;;11.23;62.95
76594;BME280;65482;50.240;14.302;2023-05-07T04:30:56;99895.56;;;11.31;63.13
76594;BME280;65482;50.240;14.302;2023-05-07T04:33:21;99893.06;;;11.29;62.95
76594;BME280;65482;50.240;14.302;2023-05-07T04:35:47;99905.41;;;11.21;62.84
76594;BME280;65482;50.240;14.302;2023-05-07T04:38:12;99900.19;;;11.29;62.61
76594;BME280;65482;50.240;14.302;2023-05-07T04:40:38;99901.38;;;11.34;62.31
76594;BME280;65482;50.240;14.302;2023-05-07T04:43:04;99908.81;;;11.39;62.33
76594;BME280;65482;50.240;14.302;2023-05-07T04:45:30;99905.50;;;11.37;62.25
76594;BME280;65482;50.240;14.302;2023-05-07T04:47:55;99908.09;;;11.29;62.33
76594;BME280;65482;50.240;14.302;2023-05-07T04:50:21;99908.72;;;11.23;62.31
76594;BME280;65482;50.240;14.302;2023-05-07T04:52:49;99916.66;;;11.23;61.85
76594;BME280;65482;50.240;14.302;2023-05-07T04:55:15;99914.78;;;11.15;62.04
76594;BME280;65482;50.240;14.302;2023-05-07T04:57:41;99909.00;;;11.20;62.02
76594;BME280;65482;50.240;14.302;2023-05-07T05:00:07;99916.69;;;11.31;62.08
76594;BME280;65482;50.240;14.302;2023-05-07T05:02:34;99928.44;;;11.37;62.12
76594;BME280;65482;50.240;14.302;2023-05-07T05:05:01;99918.41;;;11.40;62.21
76594;BME280;65482;50.240;14.302;2023-05-07T05:07:28;99922.03;;;11.39;61.11
76594;BME280;65482;50.240;14.302;2023-05-07T05:09:54;99914.63;;;11.43;61.65
76594;BME280;65482;50.240;14.302;2023-05-07T05:12:20;99924.56;;;11.49;61.54
76594;BME280;65482;50.240;14.302;2023-05-07T05:14:46;99927.78;;;11.34;61.66
76594;BME280;65482;50.240;14.302;2023-05-07T05:17:12;99914.56;;;11.34;61.97
76594;BME280;65482;50.240;14.302;2023-05-07T05:19:38;99933.59;;;11.38;61.54
76594;BME280;65482;50.240;14.302;2023-05-07T05:22:03;99926.38;;;11.48;61.58
76594;BME280;65482;50.240;14.302;2023-05-07T05:24:30;99932.84;;;11.54;60.92
76594;BME280;65482;50.240;14.302;2023-05-07T05:26:56;99931.34;;;11.51;61.20
76594;BME280;65482;50.240;14.302;2023-05-07T05:29:21;99933.06;;;11.61;61.25
76594;BME280;65482;50.240;14.302;2023-05-07T05:31:47;99938.63;;;11.58;61.18
76594;BME280;65482;50.240;14.302;2023-05-07T05:34:13;99932.28;;;11.68;60.39
76594;BME280;65482;50.240;14.302;2023-05-07T05:36:38;99931.94;;;11.71;60.07
76594;BME280;65482;50.240;14.302;2023-05-07T05:39:04;99933.09;;;11.69;60.39
76594;BME280;65482;50.240;14.302;2023-05-07T05:41:30;99930.44;;;11.69;59.81
76594;BME280;65482;50.240;14.302;2023-05-07T05:43:55;99936.56;;;11.69;60.26
76594;BME280;65482;50.240;14.302;2023-05-07T05:46:21;99933.66;;;11.81;59.60
76594;BME280;65482;50.240;14.302;2023-05-07T05:48:47;99937.47;;;11.86;59.60
76594;BME280;65482;50.240;14.302;2023-05-07T05:51:12;99928.97;;;12.01;59.13
76594;BME280;65482;50.240;14.302;2023-05-07T05:53:38;99931.09;;;11.97;58.37
76594;BME280;65482;50.240;14.302;2023-05-07T05:56:04;99939.19;;;11.96;58.90
76594;BME280;65482;50.240;14.302;2023-05-07T05:58:29;99944.94;;;11.91;58.32
76594;BME280;65482;50.240;14.302;2023-05-07T06:00:55;99944.19;;;12.07;57.70
76594;BME280;65482;50.240;14.302;2023-05-07T06:03:22;99950.00;;;12.10;57.64
76594;BME280;65482;50.240;14.302;2023-05-07T06:05:49;99945.88;;;12.16;57.44
76594;BME280;65482;50.240;14.302;2023-05-07T06:08:15;99949.06;;;12.28;57.52
76594;BME280;65482;50.240;14.302;2023-05-07T06:10:41;99958.00;;;12.35;56.36
76594;BME280;65482;50.240;14.302;2023-05-07T06:13:07;99955.88;;;12.39;55.99
76594;BME280;65482;50.240;14.302;2023-05-07T06:15:33;99965.66;;;12.46;56.06
76594;BME280;65482;50.240;14.302;2023-05-07T06:17:58;99970.56;;;12.33;55.63
76594;BME280;65482;50.240;14.302;2023-05-07T06:20:24;99979.00;;;12.28;55.84
76594;BME280;65482;50.240;14.302;2023-05-07T06:22:50;99979.50;;;12.32;55.78
76594;BME280;65482;50.240;14.302;2023-05-07T06:25:16;99981.28;;;12.23;56.13
76594;BME280;65482;50.240;14.302;2023-05-07T06:27:41;99977.50;;;12.26;56.08
76594;BME280;65482;50.240;14.302;2023-05-07T06:30:08;99981.31;;;12.31;56.14
76594;BME280;65482;50.240;14.302;2023-05-07T06:32:33;99988.38;;;12.23;56.59
76594;BME280;65482;50.240;14.302;2023-05-07T06:34:59;99985.06;;;12.21;57.26
76594;BME280;65482;50.240;14.302;2023-05-07T06:37:25;99990.34;;;12.12;57.37
76594;BME280;65482;50.240;14.302;2023-05-07T06:39:50;99985.28;;;11.93;57.86
76594;BME280;65482;50.240;14.302;2023-05-07T06:42:16;99986.63;;;11.97;58.29
76594;BME280;65482;50.240;14.302;2023-05-07T06:44:42;99985.00;;;11.78;58.79
76594;BME280;65482;50.240;14.302;2023-05-07T06:47:07;99999.94;;;11.61;58.84
76594;BME280;65482;50.240;14.302;2023-05-07T06:49:33;99990.91;;;11.46;59.98
76594;BME280;65482;50.240;14.302;2023-05-07T06:51:58;99987.44;;;11.45;60.26
76594;BME280;65482;50.240;14.302;2023-05-07T06:54:24;99994.28;;;11.56;59.74
76594;BME280;65482;50.240;14.302;2023-05-07T06:56:50;99993.19;;;11.41;60.19
76594;BME280;65482;50.240;14.302;2023-05-07T06:59:16;99999.72;;;11.54;59.96
76594;BME280;65482;50.240;14.302;2023-05-07T07:01:41;100004.53;;;11.59;59.88
76594;BME280;65482;50.240;14.302;2023-05-07T07:04:07;100004.81;;;11.74;59.63
76594;BME280;65482;50.240;14.302;2023-05-07T07:06:34;100008.94;;;11.77;59.57
76594;BME280;65482;50.240;14.302;2023-05-07T07:09:00;100005.75;;;11.91;59.39
76594;BME280;65482;50.240;14.302;2023-05-07T07:11:25;100003.78;;;11.93;59.50
76594;BME280;65482;50.240;14.302;2023-05-07T07:13:51;99999.06;;;12.05;59.20
76594;BME280;65482;50.240;14.302;2023-05-07T07:16:17;100004.19;;;12.06;58.49
76594;BME280;65482;50.240;14.302;2023-05-07T07:18:42;100001.97;;;11.93;59.20
76594;BME280;65482;50.240;14.302;2023-05-07T07:21:08;100006.94;;;11.97;59.03
76594;BME280;65482;50.240;14.302;2023-05-07T07:23:33;100006.16;;;12.04;58.52
76594;BME280;65482;50.240;14.302;2023-05-07T07:25:59;100019.38;;;12.04;59.22
76594;BME280;65482;50.240;14.302;2023-05-07T07:28:25;100012.00;;;12.16;59.16
76594;BME280;65482;50.240;14.302;2023-05-07T07:30:50;100019.31;;;12.22;58.87
76594;BME280;65482;50.240;14.302;2023-05-07T07:33:17;100017.00;;;12.27;57.79
76594;BME280;65482;50.240;14.302;2023-05-07T07:35:42;100024.44;;;12.24;58.21
76594;BME280;65482;50.240;14.302;2023-05-07T07:38:08;100021.13;;;12.22;57.78
76594;BME280;65482;50.240;14.302;2023-05-07T07:40:35;100020.16;;;12.31;57.98
76594;BME280;65482;50.240;14.302;2023-05-07T07:43:00;100020.50;;;12.36;57.81
76594;BME280;65482;50.240;14.302;2023-05-07T07:45:26;100016.59;;;12.48;57.87
76594;BME280;65482;50.240;14.302;2023-05-07T07:47:52;100023.72;;;12.56;57.72
76594;BME280;65482;50.240;14.302;2023-05-07T07:50:18;100018.28;;;12.66;57.24
76594;BME280;65482;50.240;14.302;2023-05-07T07:52:44;100024.41;;;12.66;56.77
76594;BME280;65482;50.240;14.302;2023-05-07T07:55:10;100033.00;;;12.60;57.12
76594;BME280;65482;50.240;14.302;2023-05-07T07:57:36;100032.34;;;12.58;56.74
76594;BME280;65482;50.240;14.302;2023-05-07T08:00:02;100026.66;;;12.45;57.10
76594;BME280;65482;50.240;14.302;2023-05-07T08:02:28;100036.31;;;12.62;57.18
76594;BME280;65482;50.240;14.302;2023-05-07T08:04:55;100030.06;;;12.71;55.90
76594;BME280;65482;50.240;14.302;2023-05-07T08:07:21;100040.00;;;12.78;56.00
76594;BME280;65482;50.240;14.302;2023-05-07T08:09:48;100041.66;;;12.87;55.71
76594;BME280;65482;50.240;14.302;2023-05-07T08:12:14;100043.50;;;13.03;55.60
76594;BME280;65482;50.240;14.302;2023-05-07T08:14:39;100044.03;;;13.14;55.72
76594;BME280;65482;50.240;14.302;2023-05-07T08:17:06;100037.25;;;13.28;55.03
76594;BME280;65482;50.240;14.302;2023-05-07T08:19:31;100031.81;;;13.30;54.36
76594;BME280;65482;50.240;14.302;2023-05-07T08:21:57;100037.47;;;13.35;54.99
76594;BME280;65482;50.240;14.302;2023-05-07T08:24:23;100036.72;;;13.25;55.15
76594;BME280;65482;50.240;14.302;2023-05-07T08:26:50;100047.56;;;13.40;54.28
76594;BME280;65482;50.240;14.302;2023-05-07T08:29:15;100043.41;;;13.37;54.13
76594;BME280;65482;50.240;14.302;2023-05-07T08:31:41;100045.56;;;13.33;53.89
76594;BME280;65482;50.240;14.302;2023-05-07T08:34:07;100051.84;;;13.32;54.35
76594;BME280;65482;50.240;14.302;2023-05-07T08:36:33;100050.50;;;13.45;54.57
76594;BME280;65482;50.240;14.302;2023-05-07T08:38:59;100053.16;;;13.37;54.75
76594;BME280;65482;50.240;14.302;2023-05-07T08:41:26;100064.47;;;13.47;54.58
76594;BME280;65482;50.240;14.302;2023-05-07T08:43:51;100062.28;;;13.67;54.40
76594;BME280;65482;50.240;14.302;2023-05-07T08:46:19;100052.16;;;13.70;53.48
76594;BME280;65482;50.240;14.302;2023-05-07T08:48:47;100053.66;;;13.73;53.53
76594;BME280;65482;50.240;14.302;2023-05-07T08:51:16;100055.81;;;13.78;53.55
76594;BME280;65482;50.240;14.302;2023-05-07T08:53:45;100061.63;;;13.73;53.32
76594;BME280;65482;50.240;14.302;2023-05-07T08:56:12;100066.09;;;13.81;53.55
76594;BME280;65482;50.240;14.302;2023-05-07T08:58:37;100064.41;;;13.80;53.90
76594;BME280;65482;50.240;14.302;2023-05-07T09:01:07;100068.22;;;13.85;53.59
76594;BME280;65482;50.240;14.302;2023-05-07T09:03:33;100070.69;;;13.95;53.22
76594;BME280;65482;50.240;14.302;2023-05-07T09:05:59;100067.69;;;14.15;52.88
76594;BME280;65482;50.240;14.302;2023-05-07T09:08:26;100072.94;;;14.31;52.29
76594;BME280;65482;50.240;14.302;2023-05-07T09:10:52;100071.88;;;14.48;52.06
76594;BME280;65482;50.240;14.302;2023-05-07T09:13:18;100074.97;;;14.68;51.74
76594;BME280;65482;50.240;14.302;2023-05-07T09:15:43;100071.75;;;14.81;50.42
76594;BME280;65482;50.240;14.302;2023-05-07T09:18:09;100071.66;;;15.21;50.39
76594;BME280;65482;50.240;14.302;2023-05-07T09:20:36;100063.44;;;15.77;48.96
76594;BME280;65482;50.240;14.302;2023-05-07T09:23:02;100064.28;;;16.07;48.24
76594;BME280;65482;50.240;14.302;2023-05-07T09:25:29;100066.78;;;16.38;46.95
76594;BME280;65482;50.240;14.302;2023-05-07T09:27:55;100074.47;;;16.48;46.44
76594;BME280;65482;50.240;14.302;2023-05-07T09:30:21;100066.97;;;16.22;46.65
76594;BME280;65482;50.240;14.302;2023-05-07T09:32:47;100070.44;;;16.22;47.44
76594;BME280;65482;50.240;14.302;2023-05-07T09:35:16;100067.75;;;16.37;47.13
76594;BME280;65482;50.240;14.302;2023-05-07T09:37:42;100071.19;;;16.46;46.61
76594;BME280;65482;50.240;14.302;2023-05-07T09:40:20;100057.22;;;16.44;46.39
76594;BME280;65482;50.240;14.302;2023-05-07T09:42:45;100074.81;;;16.89;45.89
76594;BME280;65482;50.240;14.302;2023-05-07T09:45:36;100072.75;;;17.28;44.00
76594;BME280;65482;50.240;14.302;2023-05-07T09:48:04;100073.34;;;16.72;44.42
76594;BME280;65482;50.240;14.302;2023-05-07T09:50:41;100076.31;;;16.47;45.03
76594;BME280;65482;50.240;14.302;2023-05-07T09:53:11;100070.97;;;16.62;45.83
76594;BME280;65482;50.240;14.302;2023-05-07T09:55:39;100071.50;;;16.87;45.41
76594;BME280;65482;50.240;14.302;2023-05-07T09:58:06;100065.88;;;16.97;45.77
76594;BME280;65482;50.240;14.302;2023-05-07T10:00:33;100063.19;;;17.19;45.23
76594;BME280;65482;50.240;14.302;2023-05-07T10:03:01;100065.03;;;17.18;44.59
76594;BME280;65482;50.240;14.302;2023-05-07T10:05:29;100060.94;;;17.37;44.53
76594;BME280;65482;50.240;14.302;2023-05-07T10:07:56;100065.31;;;17.45;44.05
76594;BME280;65482;50.240;14.302;2023-05-07T10:10:23;100066.44;;;17.14;43.82
76594;BME280;65482;50.240;14.302;2023-05-07T10:12:50;100064.47;;;17.01;44.95
76594;BME280;65482;50.240;14.302;2023-05-07T10:15:16;100068.75;;;17.17;44.60
76594;BME280;65482;50.240;14.302;2023-05-07T10:17:43;100071.59;;;17.16;44.27
76594;BME280;65482;50.240;14.302;2023-05-07T10:20:10;100079.78;;;17.14;44.78
76594;BME280;65482;50.240;14.302;2023-05-07T10:22:41;100077.09;;;17.14;44.26
76594;BME280;65482;50.240;14.302;2023-05-07T10:25:28;100071.19;;;17.19;43.69
76594;BME280;65482;50.240;14.302;2023-05-07T10:27:57;100069.81;;;17.23;44.26
76594;BME280;65482;50.240;14.302;2023-05-07T10:30:55;100062.34;;;17.33;44.82
76594;BME280;65482;50.240;14.302;2023-05-07T10:33:28;100065.53;;;17.50;44.39
76594;BME280;65482;50.240;14.302;2023-05-07T10:35:58;100057.03;;;17.61;43.92
76594;BME280;65482;50.240;14.302;2023-05-07T10:38:27;100065.66;;;17.85;44.23
76594;BME280;65482;50.240;14.302;2023-05-07T10:40:53;100068.75;;;17.88;44.22
76594;BME280;65482;50.240;14.302;2023-05-07T10:43:19;100056.81;;;17.84;44.10
76594;BME280;65482;50.240;14.302;2023-05-07T10:46:17;100052.72;;;17.88;43.41
76594;BME280;65482;50.240;14.302;2023-05-07T10:51:35;100051.22;;;17.51;43.15
76594;BME280;65482;50.240;14.302;2023-05-07T10:56:37;100051.97;;;16.65;45.53
76594;BME280;65482;50.240;14.302;2023-05-07T11:01:57;100056.09;;;16.53;46.62
76594;BME280;65482;50.240;14.302;2023-05-07T11:04:23;100058.69;;;16.17;47.54
76594;BME280;65482;50.240;14.302;2023-05-07T11:07:21;100057.88;;;16.16;48.49
76594;BME280;65482;50.240;14.302;2023-05-07T11:09:56;100058.06;;;16.15;47.99
76594;BME280;65482;50.240;14.302;2023-05-07T11:15:13;100056.03;;;16.46;47.55
76594;BME280;65482;50.240;14.302;2023-05-07T11:20:20;100056.44;;;16.80;47.34
76594;BME280;65482;50.240;14.302;2023-05-07T11:22:49;100062.44;;;17.03;46.19
76594;BME280;65482;50.240;14.302;2023-05-07T11:25:18;100060.63;;;16.89;46.14
76594;BME280;65482;50.240;14.302;2023-05-07T11:27:47;100062.03;;;16.70;46.26
76594;BME280;65482;50.240;14.302;2023-05-07T11:30:18;100060.69;;;16.59;46.69
76594;BME280;65482;50.240;14.302;2023-05-07T11:32:47;100057.66;;;16.62;46.89
76594;BME280;65482;50.240;14.302;2023-05-07T11:35:15;100055.06;;;16.69;46.90
76594;BME280;65482;50.240;14.302;2023-05-07T11:37:42;100062.00;;;16.34;47.68
76594;BME280;65482;50.240;14.302;2023-05-07T11:40:08;100061.16;;;16.33;47.60
76594;BME280;65482;50.240;14.302;2023-05-07T11:42:40;100058.97;;;16.37;47.53
76594;BME280;65482;50.240;14.302;2023-05-07T11:45:08;100063.75;;;16.26;48.05
76594;BME280;65482;50.240;14.302;2023-05-07T11:47:34;100065.22;;;16.29;47.95
76594;BME280;65482;50.240;14.302;2023-05-07T11:50:07;100076.31;;;16.33;48.43
76594;BME280;65482;50.240;14.302;2023-05-07T11:52:34;100068.88;;;16.43;47.83
76594;BME280;65482;50.240;14.302;2023-05-07T11:55:02;100071.19;;;16.46;47.57
76594;BME280;65482;50.240;14.302;2023-05-07T11:57:30;100066.84;;;16.45;47.06
76594;BME280;65482;50.240;14.302;2023-05-07T11:59:57;100074.47;;;16.48;47.54
76594;BME280;65482;50.240;14.302;2023-05-07T12:02:24;100070.44;;;16.37;47.58
76594;BME280;65482;50.240;14.302;2023-05-07T12:04:54;100065.28;;;16.50;47.68
76594;BME280;65482;50.240;14.302;2023-05-07T12:07:27;100062.25;;;16.54;46.68
76594;BME280;65482;50.240;14.302;2023-05-07T12:09:53;100065.19;;;16.59;46.45
76594;BME280;65482;50.240;14.302;2023-05-07T12:12:19;100074.19;;;16.43;47.63
76594;BME280;65482;50.240;14.302;2023-05-07T12:14:45;100083.47;;;16.62;46.86
76594;BME280;65482;50.240;14.302;2023-05-07T12:17:13;100075.09;;;16.65;46.78
76594;BME280;65482;50.240;14.302;2023-05-07T12:19:40;100082.72;;;16.53;46.93
76594;BME280;65482;50.240;14.302;2023-05-07T12:22:08;100079.81;;;16.48;47.15
76594;BME280;65482;50.240;14.302;2023-05-07T12:24:49;100084.22;;;16.56;46.46
76594;BME280;65482;50.240;14.302;2023-05-07T12:27:16;100080.38;;;16.95;46.43
76594;BME280;65482;50.240;14.302;2023-05-07T12:29:47;100089.34;;;17.08;46.17
76594;BME280;65482;50.240;14.302;2023-05-07T12:32:14;100078.88;;;16.85;46.22
76594;BME280;65482;50.240;14.302;2023-05-07T12:34:40;100089.31;;;16.87;46.27
76594;BME280;65482;50.240;14.302;2023-05-07T12:37:06;100084.31;;;16.99;46.57
76594;BME280;65482;50.240;14.302;2023-05-07T12:39:32;100083.03;;;16.95;46.20
76594;BME280;65482;50.240;14.302;2023-05-07T12:41:59;100081.06;;;16.67;46.18
76594;BME280;65482;50.240;14.302;2023-05-07T12:44:32;100089.19;;;16.44;46.16
76594;BME280;65482;50.240;14.302;2023-05-07T12:47:01;100083.56;;;16.39;46.70
76594;BME280;65482;50.240;14.302;2023-05-07T12:49:27;100072.91;;;16.54;46.34
76594;BME280;65482;50.240;14.302;2023-05-07T12:51:53;100075.00;;;16.58;46.43
76594;BME280;65482;50.240;14.302;2023-05-07T12:54:34;100074.28;;;16.35;46.18
76594;BME280;65482;50.240;14.302;2023-05-07T12:57:04;100075.13;;;16.50;46.04